Time;durP1;ratioP1;P1;durP2;ratioP2;P2;SDS_P1;SDS_P2;PMS_P1;PMS_P2;Temp;Humidity;BMP_temperature;BMP_pressure;BME280_temperature;BME280_humidity;BME280_pressure;Samples;Min_cycle;Max_cycle;Signal;HPM_P1;HPM_P2
2023/03/08 00:01:47;;;;;;;7.03;4.45;;;0.00;99.90;;;;;;5061264;28;22384;-85
2023/03/08 00:04:17;;;;;;;5.43;3.63;;;0.00;99.90;;;;;;5071934;28;20040;-85
2023/03/08 00:06:48;;;;;;;6.28;4.20;;;0.00;99.90;;;;;;5061296;28;20039;-85
2023/03/08 00:09:28;;;;;;;7.03;4.65;;;-0.10;99.90;;;;;;5063988;28;20420;-87
2023/03/08 00:12:01;;;;;;;6.07;4.00;;;-0.20;99.90;;;;;;5051097;28;20107;-86
2023/03/08 00:14:27;;;;;;;6.80;4.43;;;-0.20;99.90;;;;;;5049813;28;20036;-87
2023/03/08 00:17:01;;;;;;;7.30;4.88;;;-0.30;99.90;;;;;;5079643;28;20071;-85
2023/03/08 00:19:31;;;;;;;7.68;5.32;;;-0.30;99.90;;;;;;5065642;28;20031;-86
2023/03/08 00:21:59;;;;;;;8.95;5.72;;;-0.30;99.90;;;;;;5079920;28;20024;-86
2023/03/08 00:24:25;;;;;;;7.45;4.68;;;-0.30;99.90;;;;;;5083297;28;20428;-86
2023/03/08 00:26:55;;;;;;;8.45;5.65;;;-0.40;99.90;;;;;;5064665;28;20448;-87
2023/03/08 00:29:26;;;;;;;8.73;6.40;;;-0.40;99.90;;;;;;5060762;28;20464;-85
2023/03/08 00:31:55;;;;;;;7.75;5.13;;;-0.30;99.90;;;;;;5080832;28;20035;-86
2023/03/08 00:34:21;;;;;;;7.57;5.55;;;-0.30;99.90;;;;;;5078751;28;20025;-86
2023/03/08 00:36:50;;;;;;;7.88;5.05;;;-0.30;99.90;;;;;;5080575;28;20044;-86
2023/03/08 00:39:17;;;;;;;11.57;5.82;;;-0.40;99.90;;;;;;5068373;28;20114;-86
2023/03/08 00:41:43;;;;;;;9.43;6.45;;;-0.40;99.90;;;;;;5061589;28;20062;-86
2023/03/08 00:44:14;;;;;;;10.65;7.05;;;-0.40;99.90;;;;;;5061178;28;20020;-86
2023/03/08 00:46:41;;;;;;;11.77;7.82;;;-0.30;99.90;;;;;;5081710;28;20461;-85
2023/03/08 00:49:09;;;;;;;11.60;8.02;;;-0.30;99.90;;;;;;5077542;28;20028;-86
2023/03/08 00:51:36;;;;;;;10.60;7.85;;;-0.30;99.90;;;;;;5059951;28;20028;-85
2023/03/08 00:54:03;;;;;;;10.27;6.78;;;-0.30;99.90;;;;;;5046199;28;20032;-86
2023/03/08 00:56:30;;;;;;;10.93;7.88;;;-0.30;99.90;;;;;;5061481;28;20059;-86
2023/03/08 00:58:56;;;;;;;11.30;7.88;;;-0.40;99.90;;;;;;5046310;28;20069;-85
2023/03/08 01:01:25;;;;;;;11.60;8.35;;;-0.40;99.90;;;;;;5065497;28;20075;-86
2023/03/08 01:03:51;;;;;;;13.52;8.93;;;-0.40;99.90;;;;;;5085190;28;20075;-86
2023/03/08 01:06:17;;;;;;;11.90;8.50;;;-0.30;99.90;;;;;;5066262;28;20075;-87
2023/03/08 01:08:44;;;;;;;13.38;9.73;;;-0.40;99.90;;;;;;5064743;28;20032;-86
2023/03/08 01:11:19;;;;;;;11.88;8.82;;;-0.30;99.90;;;;;;5080110;28;20097;-84
2023/03/08 01:13:48;;;;;;;11.60;8.43;;;-0.30;99.90;;;;;;5068953;28;20472;-85
2023/03/08 01:16:24;;;;;;;12.85;7.65;;;-0.30;99.90;;;;;;5067191;28;20035;-84
2023/03/08 01:18:50;;;;;;;12.32;9.10;;;-0.30;99.90;;;;;;5078328;28;20027;-84
2023/03/08 01:21:19;;;;;;;13.35;9.40;;;-0.30;99.90;;;;;;5067188;28;20020;-84
2023/03/08 01:23:46;;;;;;;15.93;11.25;;;-0.20;99.90;;;;;;5064337;28;20029;-85
2023/03/08 01:26:16;;;;;;;14.43;9.95;;;-0.30;99.90;;;;;;5081919;28;20751;-85
2023/03/08 01:28:43;;;;;;;12.93;9.18;;;-0.40;99.90;;;;;;5066802;28;20039;-84
2023/03/08 01:31:16;;;;;;;13.50;9.88;;;-0.40;99.90;;;;;;5065009;28;20035;-85
2023/03/08 01:33:43;;;;;;;15.55;9.73;;;-0.50;99.90;;;;;;5064801;28;20028;-85
2023/03/08 01:36:14;;;;;;;14.18;9.88;;;-0.60;99.90;;;;;;5064729;28;20039;-85
2023/03/08 01:38:42;;;;;;;16.02;11.63;;;-0.50;99.90;;;;;;5063811;28;20020;-84
2023/03/08 01:41:17;;;;;;;14.95;10.98;;;-0.50;99.90;;;;;;5052270;28;20464;-84
2023/03/08 01:43:43;;;;;;;15.65;11.20;;;-0.50;99.90;;;;;;5076318;28;20039;-84
2023/03/08 01:46:28;;;;;;;14.30;10.48;;;-0.50;99.90;;;;;;5067632;28;20160;-85
2023/03/08 01:49:12;;;;;;;15.40;10.82;;;-0.40;99.90;;;;;;5083302;28;20013;-84
2023/03/08 01:51:56;;;;;;;16.02;10.70;;;-0.30;99.90;;;;;;5065902;28;20020;-84
2023/03/08 01:54:30;;;;;;;16.25;11.02;;;-0.20;99.90;;;;;;5062387;28;20399;-84
2023/03/08 01:57:20;;;;;;;16.42;11.00;;;-0.20;99.90;;;;;;5065572;28;20131;-84
2023/03/08 01:59:50;;;;;;;16.70;10.88;;;-0.20;99.90;;;;;;5051711;28;20078;-84
2023/03/08 02:02:24;;;;;;;14.55;10.30;;;-0.20;99.90;;;;;;5066492;28;20085;-84
2023/03/08 02:04:50;;;;;;;16.08;11.50;;;-0.20;99.90;;;;;;5068512;28;20468;-84
2023/03/08 02:07:17;;;;;;;15.23;10.82;;;-0.10;99.90;;;;;;5067011;28;20375;-85
2023/03/08 02:09:45;;;;;;;16.42;10.98;;;-0.20;99.90;;;;;;5060915;28;20060;-84
2023/03/08 02:12:12;;;;;;;17.77;12.60;;;-0.10;99.90;;;;;;5063261;28;20100;-84
2023/03/08 02:14:49;;;;;;;18.00;11.88;;;0.00;99.90;;;;;;5077798;28;20171;-86
2023/03/08 02:17:15;;;;;;;16.20;12.10;;;-0.10;99.90;;;;;;5068328;28;20442;-85
2023/03/08 02:19:49;;;;;;;17.35;12.50;;;0.00;99.90;;;;;;5065973;28;20033;-84
2023/03/08 02:22:16;;;;;;;14.45;10.80;;;0.00;99.90;;;;;;5077297;28;20032;-85
2023/03/08 02:24:42;;;;;;;16.88;11.75;;;-0.10;99.90;;;;;;5080512;28;20054;-84
2023/03/08 02:27:17;;;;;;;15.48;11.02;;;0.00;99.90;;;;;;5063954;28;20031;-85
2023/03/08 02:29:45;;;;;;;15.80;11.40;;;0.00;99.90;;;;;;5079433;28;20032;-84
2023/03/08 02:32:11;;;;;;;17.45;12.25;;;0.00;99.90;;;;;;5064802;28;20035;-84
2023/03/08 02:34:37;;;;;;;14.63;10.55;;;0.00;99.90;;;;;;5068784;28;20093;-84
2023/03/08 02:37:04;;;;;;;14.73;10.38;;;0.00;99.90;;;;;;5061918;28;20032;-85
2023/03/08 02:39:31;;;;;;;14.90;10.25;;;0.00;99.90;;;;;;5065153;28;20494;-84
2023/03/08 02:41:57;;;;;;;15.10;10.88;;;0.00;99.90;;;;;;5050166;28;20033;-84
2023/03/08 02:44:23;;;;;;;13.43;9.73;;;0.00;99.90;;;;;;5081055;28;20055;-85
2023/03/08 02:46:50;;;;;;;14.10;9.52;;;0.10;99.90;;;;;;5059683;28;20446;-85
2023/03/08 02:49:17;;;;;;;14.93;10.45;;;0.10;99.90;;;;;;5063156;28;20051;-84
2023/03/08 02:51:43;;;;;;;17.52;11.65;;;0.20;99.90;;;;;;5046604;28;20368;-84
2023/03/08 02:54:09;;;;;;;17.13;11.38;;;0.20;99.90;;;;;;5065498;28;20118;-85
2023/03/08 02:56:36;;;;;;;16.30;11.45;;;0.20;99.90;;;;;;5066492;28;20079;-86
2023/03/08 02:59:03;;;;;;;15.07;10.43;;;0.30;99.90;;;;;;5063937;28;20126;-85
2023/03/08 03:01:30;;;;;;;16.60;11.02;;;0.30;99.90;;;;;;5064045;28;20066;-84
2023/03/08 03:03:56;;;;;;;15.68;10.07;;;0.30;99.90;;;;;;5065978;28;20037;-84
2023/03/08 03:06:22;;;;;;;15.70;10.90;;;0.30;99.90;;;;;;5061763;28;20028;-85
2023/03/08 03:08:49;;;;;;;17.00;11.60;;;0.40;99.90;;;;;;5066505;28;20024;-84
2023/03/08 03:11:18;;;;;;;15.50;10.23;;;0.40;99.90;;;;;;5065405;28;22284;-85
2023/03/08 03:13:52;;;;;;;16.50;11.30;;;0.40;99.90;;;;;;5081162;28;20031;-85
2023/03/08 03:16:19;;;;;;;20.77;13.45;;;0.40;99.90;;;;;;5077988;28;20029;-85
2023/03/08 03:18:48;;;;;;;24.10;14.55;;;0.40;99.90;;;;;;5064599;28;20031;-85
2023/03/08 03:21:14;;;;;;;31.80;17.52;;;0.40;99.90;;;;;;5058072;28;20035;-85
2023/03/08 03:23:40;;;;;;;23.98;14.45;;;0.40;99.90;;;;;;5064113;28;20164;-85
2023/03/08 03:26:13;;;;;;;25.88;15.13;;;0.40;99.90;;;;;;5077793;28;20103;-86
2023/03/08 03:28:43;;;;;;;26.23;15.70;;;0.40;99.90;;;;;;5065639;28;20016;-85
2023/03/08 03:31:20;;;;;;;24.08;15.40;;;0.50;99.90;;;;;;5063495;28;20024;-85
2023/03/08 03:33:54;;;;;;;25.83;15.70;;;0.50;99.90;;;;;;5061007;28;20031;-84
2023/03/08 03:36:21;;;;;;;23.50;14.48;;;0.50;99.90;;;;;;5063688;28;20036;-85
2023/03/08 03:38:49;;;;;;;28.50;14.57;;;0.60;99.90;;;;;;5046111;28;20375;-85
2023/03/08 03:41:21;;;;;;;26.98;15.52;;;0.60;99.90;;;;;;5061920;28;20028;-84
2023/03/08 03:43:49;;;;;;;30.17;16.33;;;0.60;99.90;;;;;;5065938;28;20047;-85
2023/03/08 03:46:18;;;;;;;28.25;15.00;;;0.60;99.90;;;;;;5061385;28;20024;-84
2023/03/08 03:48:45;;;;;;;32.90;16.20;;;0.60;99.90;;;;;;5065095;28;20028;-85
2023/03/08 03:51:16;;;;;;;26.02;15.65;;;0.60;99.90;;;;;;5064914;28;20105;-85
2023/03/08 03:53:44;;;;;;;30.48;16.88;;;0.70;99.90;;;;;;5063054;28;20025;-85
2023/03/08 03:56:37;;;;;;;30.20;16.35;;;0.60;99.90;;;;;;5063289;28;20047;-85
2023/03/08 03:59:04;;;;;;;29.20;16.33;;;0.60;99.90;;;;;;5058260;28;20033;-84
2023/03/08 04:01:31;;;;;;;32.25;15.57;;;0.60;99.90;;;;;;5061246;28;20590;-85
2023/03/08 04:03:58;;;;;;;35.58;18.52;;;0.60;99.90;;;;;;5060086;28;20040;-85
2023/03/08 04:06:27;;;;;;;37.38;18.20;;;0.60;99.90;;;;;;5060727;28;20033;-84
2023/03/08 04:09:02;;;;;;;35.42;18.48;;;0.60;99.90;;;;;;5061382;28;20031;-84
2023/03/08 04:11:33;;;;;;;39.80;19.38;;;0.70;99.90;;;;;;5061012;28;20086;-84
2023/03/08 04:14:00;;;;;;;30.73;16.17;;;0.70;99.90;;;;;;5060444;28;20036;-84
2023/03/08 04:16:30;;;;;;;37.58;17.95;;;0.70;99.90;;;;;;5058875;28;20698;-84
2023/03/08 04:19:10;;;;;;;36.08;18.17;;;0.80;99.90;;;;;;5060695;28;20036;-85
2023/03/08 04:21:38;;;;;;;40.88;19.48;;;0.70;99.90;;;;;;5058423;28;20024;-85
2023/03/08 04:24:05;;;;;;;36.40;19.63;;;0.70;99.90;;;;;;5060813;28;20043;-85
2023/03/08 04:26:32;;;;;;;40.92;20.13;;;0.70;99.90;;;;;;5057914;28;20029;-84
2023/03/08 04:28:59;;;;;;;36.08;18.58;;;0.80;99.90;;;;;;5059852;28;20025;-85
2023/03/08 04:31:28;;;;;;;42.45;22.30;;;0.70;99.90;;;;;;5045042;28;20063;-85
2023/03/08 04:33:54;;;;;;;39.17;19.90;;;0.80;99.90;;;;;;5059796;28;20073;-84
2023/03/08 04:36:25;;;;;;;39.88;19.90;;;0.70;99.90;;;;;;5061288;28;20078;-85
2023/03/08 04:38:54;;;;;;;41.30;20.13;;;0.80;99.90;;;;;;5063201;28;20074;-85
2023/03/08 04:41:21;;;;;;;40.80;20.45;;;0.80;99.90;;;;;;5063748;28;20013;-84
2023/03/08 04:43:53;;;;;;;44.67;21.23;;;0.80;99.90;;;;;;5066026;28;20174;-85
2023/03/08 04:46:24;;;;;;;38.17;19.27;;;0.90;99.90;;;;;;5060257;28;20037;-85
2023/03/08 04:48:54;;;;;;;43.28;19.52;;;0.90;99.90;;;;;;5062875;28;20472;-85
2023/03/08 04:51:22;;;;;;;46.45;22.00;;;0.90;99.90;;;;;;5066235;28;20049;-85
2023/03/08 04:53:49;;;;;;;46.08;23.02;;;0.90;99.90;;;;;;5063986;28;20040;-84
2023/03/08 04:56:15;;;;;;;47.72;21.33;;;0.90;99.90;;;;;;5064427;28;20397;-85
2023/03/08 04:58:42;;;;;;;41.20;20.42;;;0.90;99.90;;;;;;5065718;28;20059;-85
2023/03/08 05:01:17;;;;;;;47.53;22.17;;;0.80;99.90;;;;;;5058028;28;20028;-86
2023/03/08 05:03:44;;;;;;;41.38;20.35;;;0.90;99.90;;;;;;5065434;28;20035;-86
2023/03/08 05:06:13;;;;;;;44.33;22.58;;;0.80;99.90;;;;;;5066527;28;20169;-85
2023/03/08 05:08:39;;;;;;;46.78;22.23;;;0.80;99.90;;;;;;5064629;28;20029;-85
2023/03/08 05:11:29;;;;;;;46.72;22.90;;;0.90;99.90;;;;;;5059528;28;22319;-87
2023/03/08 05:13:59;;;;;;;43.33;20.67;;;0.90;99.90;;;;;;5050222;28;20052;-85
2023/03/08 05:16:26;;;;;;;42.75;21.73;;;0.90;99.90;;;;;;5064382;28;20029;-85
2023/03/08 05:18:52;;;;;;;46.33;21.75;;;0.90;99.90;;;;;;5063884;28;20439;-85
2023/03/08 05:21:23;;;;;;;42.08;21.80;;;0.90;99.90;;;;;;5066698;28;20123;-85
2023/03/08 05:23:52;;;;;;;46.15;22.95;;;0.90;99.90;;;;;;5066012;28;20025;-85
2023/03/08 05:26:24;;;;;;;48.97;22.77;;;0.90;99.90;;;;;;5061907;28;20033;-86
2023/03/08 05:28:59;;;;;;;50.38;25.00;;;0.90;99.90;;;;;;5063998;28;20159;-86
2023/03/08 05:31:28;;;;;;;49.50;24.48;;;0.90;99.90;;;;;;5068076;28;20032;-86
2023/03/08 05:34:01;;;;;;;49.60;23.90;;;0.90;99.90;;;;;;5064736;28;20065;-86
2023/03/08 05:36:28;;;;;;;50.13;22.42;;;0.90;99.90;;;;;;5061631;28;20040;-86
2023/03/08 05:38:58;;;;;;;53.33;22.70;;;0.90;99.90;;;;;;5064449;28;20103;-85
2023/03/08 05:41:27;;;;;;;52.90;25.25;;;0.90;99.90;;;;;;5060950;28;20028;-85
2023/03/08 05:44:01;;;;;;;47.83;22.75;;;0.90;99.90;;;;;;5064442;28;20120;-86
2023/03/08 05:46:50;;;;;;;53.85;24.50;;;0.90;99.90;;;;;;5063681;28;20029;-86
2023/03/08 05:49:20;;;;;;;50.13;25.08;;;1.00;99.90;;;;;;5063139;28;20032;-85
2023/03/08 05:51:48;;;;;;;49.70;23.55;;;0.90;99.90;;;;;;5046846;28;20036;-85
2023/03/08 05:54:18;;;;;;;48.88;24.00;;;0.90;99.90;;;;;;5063194;28;20025;-85
2023/03/08 05:56:48;;;;;;;53.20;26.50;;;1.00;99.90;;;;;;5079292;28;20049;-85
2023/03/08 05:59:14;;;;;;;50.50;26.30;;;1.00;99.90;;;;;;5050609;28;20028;-85
2023/03/08 06:01:44;;;;;;;50.20;23.00;;;0.90;99.90;;;;;;5066520;28;20036;-85
2023/03/08 06:04:16;;;;;;;48.38;23.65;;;0.90;99.90;;;;;;5064581;28;20105;-85
2023/03/08 06:06:51;;;;;;;45.65;22.45;;;0.90;99.90;;;;;;5064509;28;20081;-85
2023/03/08 06:09:24;;;;;;;49.00;23.42;;;0.90;99.90;;;;;;5066221;28;20031;-86
2023/03/08 06:11:51;;;;;;;44.03;23.63;;;0.90;99.90;;;;;;5070216;28;20036;-86
2023/03/08 06:14:24;;;;;;;53.80;25.23;;;0.90;99.90;;;;;;5068712;28;20028;-86
2023/03/08 06:16:57;;;;;;;49.55;25.40;;;0.90;99.90;;;;;;5069044;28;20056;-86
2023/03/08 06:19:24;;;;;;;50.85;25.02;;;0.90;99.90;;;;;;5064063;28;20032;-86
2023/03/08 06:21:51;;;;;;;48.35;23.98;;;0.90;99.90;;;;;;5085803;28;20517;-86
2023/03/08 06:24:21;;;;;;;62.97;28.15;;;0.90;99.90;;;;;;5067905;28;20020;-86
2023/03/08 06:26:48;;;;;;;53.47;25.13;;;0.90;99.90;;;;;;5068778;28;20021;-87
2023/03/08 06:29:17;;;;;;;58.17;25.45;;;0.90;99.90;;;;;;5063081;28;20122;-86
2023/03/08 06:31:44;;;;;;;51.28;24.40;;;0.90;99.90;;;;;;5083032;28;20098;-86
2023/03/08 06:34:42;;;;;;;51.05;24.33;;;1.00;99.90;;;;;;4694390;27;11603263;-86
2023/03/08 06:37:13;;;;;;;47.08;22.10;;;1.00;99.90;;;;;;5062074;28;20036;-85
2023/03/08 06:40:00;;;;;;;;;;;;;;;;;;;;;
2023/03/08 06:42:28;;;;;;;48.38;23.75;;;1.00;99.90;;;;;;5081322;28;20038;-86
2023/03/08 06:45:17;;;;;;;48.58;23.83;;;1.00;99.90;;;;;;5065080;28;20031;-85
2023/03/08 06:47:55;;;;;;;46.50;22.73;;;1.00;99.90;;;;;;4948750;28;20391;-85
2023/03/08 06:50:22;;;;;;;48.15;23.42;;;1.00;99.90;;;;;;5072805;28;20040;-85
2023/03/08 06:52:49;;;;;;;48.40;24.20;;;1.00;99.90;;;;;;5078462;28;20111;-85
2023/03/08 06:55:18;;;;;;;42.10;22.30;;;1.00;99.90;;;;;;5065478;28;20047;-85
2023/03/08 06:57:48;;;;;;;46.10;22.52;;;1.00;99.90;;;;;;5061952;28;20017;-86
2023/03/08 07:00:22;;;;;;;48.60;21.90;;;1.00;99.90;;;;;;5080094;28;20074;-86
2023/03/08 07:02:57;;;;;;;49.35;24.38;;;1.00;99.90;;;;;;5081650;28;20038;-86
2023/03/08 07:05:24;;;;;;;47.35;22.10;;;1.00;99.90;;;;;;5066119;28;20038;-86
2023/03/08 07:07:51;;;;;;;41.60;20.45;;;1.10;99.90;;;;;;5063828;28;20845;-86
2023/03/08 07:10:19;;;;;;;45.58;22.60;;;1.10;99.90;;;;;;5062642;28;20097;-87
2023/03/08 07:12:55;;;;;;;43.13;21.02;;;1.10;99.90;;;;;;5059741;28;20032;-87
2023/03/08 07:15:48;;;;;;;40.88;20.40;;;1.10;99.90;;;;;;5078564;28;20048;-86
2023/03/08 07:18:16;;;;;;;41.57;20.50;;;1.10;99.90;;;;;;5060932;28;20395;-86
2023/03/08 07:21:00;;;;;;;40.55;18.92;;;1.10;99.90;;;;;;5081275;28;20038;-86
2023/03/08 07:23:37;;;;;;;40.47;20.58;;;1.10;99.90;;;;;;5062711;28;20814;-86
2023/03/08 07:26:25;;;;;;;40.88;20.65;;;1.10;99.90;;;;;;5062490;28;20039;-86
2023/03/08 07:29:04;;;;;;;43.30;20.73;;;1.20;99.90;;;;;;5036132;28;20040;-87
2023/03/08 07:31:56;;;;;;;40.60;20.90;;;1.20;99.90;;;;;;5060698;28;20036;-87
2023/03/08 07:34:39;;;;;;;40.10;20.13;;;1.20;99.90;;;;;;5058969;28;20063;-87
2023/03/08 07:37:16;;;;;;;47.05;22.15;;;1.20;99.90;;;;;;5055614;28;20041;-85
2023/03/08 07:39:44;;;;;;;52.45;23.25;;;1.20;99.90;;;;;;5056145;28;20033;-86
2023/03/08 07:42:12;;;;;;;48.42;22.50;;;1.20;99.90;;;;;;5057919;28;20029;-86
2023/03/08 07:51:12;;;;;;;38.72;18.45;;;1.30;99.90;;;;;;4924309;28;20028;-86
2023/03/08 07:57:18;;;;;;;40.85;18.63;;;1.30;99.90;;;;;;4993648;28;20037;-86
2023/03/08 08:00:20;;;;;;;41.55;19.85;;;1.40;99.90;;;;;;5031784;28;20175;-85
2023/03/08 08:06:24;;;;;;;38.95;18.10;;;1.50;99.90;;;;;;5039524;28;20041;-85
2023/03/08 08:09:26;;;;;;;38.78;18.05;;;1.50;99.90;;;;;;5043416;28;20091;-85
2023/03/08 08:11:56;;;;;;;39.63;20.05;;;1.50;99.90;;;;;;5043437;28;20021;-85
2023/03/08 08:14:37;;;;;;;47.55;21.63;;;1.50;99.90;;;;;;5040493;28;20022;-85
2023/03/08 08:17:06;;;;;;;46.13;22.00;;;1.50;99.90;;;;;;5041309;28;20061;-86
2023/03/08 08:19:37;;;;;;;43.28;22.13;;;1.60;99.90;;;;;;5042833;28;20171;-85
2023/03/08 08:22:58;;;;;;;;;;;;;;;;;;;;;
2023/03/08 08:25:28;;;;;;;42.15;21.35;;;1.60;99.90;;;;;;5041447;28;20040;-85
2023/03/08 08:28:02;;;;;;;43.03;21.83;;;1.70;99.90;;;;;;5047415;28;20381;-86
2023/03/08 08:30:32;;;;;;;47.67;23.75;;;1.80;99.90;;;;;;5044932;28;20041;-86
2023/03/08 08:33:02;;;;;;;45.30;22.95;;;1.80;99.90;;;;;;5039786;28;20039;-85
2023/03/08 08:35:32;;;;;;;43.58;21.25;;;1.90;99.90;;;;;;5044949;28;20021;-85
2023/03/08 08:38:39;;;;;;;47.10;23.23;;;2.00;99.90;;;;;;5062303;28;20028;-86
2023/03/08 08:41:07;;;;;;;44.58;21.13;;;2.10;99.90;;;;;;5034310;28;20036;-87
2023/03/08 08:43:35;;;;;;;37.42;19.60;;;2.10;99.90;;;;;;5045935;28;20036;-85
2023/03/08 08:46:11;;;;;;;42.15;22.50;;;2.20;99.90;;;;;;5041764;28;20048;-85
2023/03/08 08:48:46;;;;;;;39.90;20.35;;;2.20;99.90;;;;;;5059658;28;20024;-85
2023/03/08 08:51:14;;;;;;;45.70;23.35;;;2.30;99.90;;;;;;5038409;28;20029;-85
2023/03/08 08:53:43;;;;;;;42.75;22.10;;;2.20;99.90;;;;;;5041662;28;20093;-85
2023/03/08 08:56:19;;;;;;;47.90;24.50;;;2.20;99.90;;;;;;5058078;28;20655;-85
2023/03/08 08:58:47;;;;;;;46.88;22.83;;;2.20;99.90;;;;;;5048308;28;20017;-85
2023/03/08 09:01:42;;;;;;;41.45;20.67;;;2.20;99.90;;;;;;5041301;28;20040;-85
2023/03/08 09:04:12;;;;;;;38.53;20.30;;;2.30;99.90;;;;;;5043692;28;20119;-85
2023/03/08 09:06:39;;;;;;;37.83;19.02;;;2.30;99.90;;;;;;5041495;28;20111;-85
2023/03/08 09:09:07;;;;;;;36.88;19.50;;;2.30;99.90;;;;;;5040796;28;20111;-85
2023/03/08 09:11:43;;;;;;;35.90;17.25;;;2.40;99.90;;;;;;5026701;28;20369;-85
2023/03/08 09:14:13;;;;;;;33.20;19.27;;;2.40;99.90;;;;;;5042782;28;20040;-84
2023/03/08 09:16:40;;;;;;;29.55;16.05;;;2.50;99.90;;;;;;5042303;28;20078;-85
2023/03/08 09:19:09;;;;;;;31.02;16.77;;;2.40;99.90;;;;;;5042831;28;20519;-86
2023/03/08 09:21:41;;;;;;;31.73;17.40;;;2.50;99.90;;;;;;5043639;28;20078;-85
2023/03/08 09:24:12;;;;;;;29.73;16.00;;;2.50;99.90;;;;;;5039962;28;20107;-85
2023/03/08 09:26:45;;;;;;;31.25;16.80;;;2.60;99.90;;;;;;5046289;28;20752;-85
2023/03/08 09:29:15;;;;;;;30.13;16.75;;;2.50;99.90;;;;;;5042121;28;20033;-84
2023/03/08 09:31:45;;;;;;;31.73;17.42;;;2.50;99.90;;;;;;5047914;28;20413;-85
2023/03/08 09:34:13;;;;;;;30.67;17.25;;;2.50;99.90;;;;;;5045710;28;20056;-85
2023/03/08 09:36:50;;;;;;;30.77;16.30;;;2.50;99.90;;;;;;5042537;28;20376;-86
2023/03/08 09:39:19;;;;;;;24.85;13.73;;;2.50;99.90;;;;;;5046022;28;20036;-86
2023/03/08 09:42:22;;;;;;;25.23;13.80;;;2.50;99.90;;;;;;5045813;28;20020;-86
2023/03/08 09:45:13;;;;;;;27.35;14.15;;;2.50;99.90;;;;;;5039594;28;20036;-87
2023/03/08 09:48:19;;;;;;;24.48;12.88;;;2.60;99.90;;;;;;5044702;28;20025;-87
2023/03/08 09:50:45;;;;;;;21.88;11.85;;;2.60;99.90;;;;;;5044493;28;20052;-86
2023/03/08 09:57:01;;;;;;;;;;;;;;;;;;;;;
2023/03/08 09:59:28;;;;;;;23.00;12.65;;;3.00;99.90;;;;;;5060891;28;20047;-85
2023/03/08 10:02:45;;;;;;;;;;;;;;;;;;;;;
2023/03/08 10:06:16;;;;;;;18.02;10.00;;;3.30;99.90;;;;;;5059736;28;20029;-85
2023/03/08 10:09:24;;;;;;;23.55;12.90;;;3.30;99.90;;;;;;5036352;28;20293;-85
2023/03/08 10:12:09;;;;;;;22.50;13.18;;;3.40;99.90;;;;;;5047520;28;20083;-85
2023/03/08 10:15:05;;;;;;;23.30;13.18;;;3.40;99.90;;;;;;5058018;28;20037;-85
2023/03/08 10:17:58;;;;;;;22.05;13.85;;;3.50;99.90;;;;;;5039817;28;20037;-86
2023/03/08 10:20:50;;;;;;;23.30;13.02;;;3.60;99.90;;;;;;5061804;28;20075;-86
2023/03/08 10:23:25;;;;;;;22.05;13.20;;;3.70;99.90;;;;;;5057787;28;20170;-85
2023/03/08 10:25:56;;;;;;;22.95;13.57;;;4.10;99.90;;;;;;5042121;28;20028;-85
2023/03/08 10:28:25;;;;;;;22.02;13.45;;;4.30;99.90;;;;;;5041912;28;20036;-85
2023/03/08 10:31:46;;;;;;;;;;;;;;;;;;;;;
2023/03/08 10:34:42;;;;;;;20.88;12.95;;;4.30;99.90;;;;;;5062527;28;20053;-87
2023/03/08 10:37:42;;;;;;;20.42;13.07;;;4.30;99.90;;;;;;5061006;28;20029;-88
2023/03/08 10:40:17;;;;;;;20.65;12.40;;;4.40;99.90;;;;;;5039751;28;20056;-87
2023/03/08 10:43:59;;;;;;;;;;;;;;;;;;;;;
2023/03/08 10:46:38;;;;;;;18.98;11.48;;;4.80;99.90;;;;;;5038630;28;20572;-84
2023/03/08 10:49:50;;;;;;;;;;;;;;;;;;;;;
2023/03/08 10:55:39;;;;;;;;;;;;;;;;;;;;;
2023/03/08 10:58:51;;;;;;;18.90;11.55;;;4.60;99.90;;;;;;5061834;28;20035;-87
2023/03/08 11:01:28;;;;;;;18.00;12.02;;;4.80;99.90;;;;;;4999853;28;20031;-85
2023/03/08 11:10:23;;;;;;;14.80;9.50;;;5.00;99.90;;;;;;5048846;28;20024;-86
2023/03/08 11:17:22;;;;;;;13.63;8.35;;;5.30;99.90;;;;;;5041325;28;20032;-86
2023/03/08 11:20:27;;;;;;;13.20;8.05;;;5.70;99.90;;;;;;5049365;28;20032;-86
2023/03/08 11:23:49;;;;;;;12.43;8.38;;;5.70;99.90;;;;;;5007516;28;20386;-87
2023/03/08 11:34:21;;;;;;;12.55;8.23;;;5.00;99.90;;;;;;4909659;29;20103;-88
2023/03/08 11:41:38;;;;;;;;;;;;;;;;;;;;;
2023/03/08 11:44:48;;;;;;;11.95;7.00;;;4.60;99.90;;;;;;4878275;29;20383;-89
2023/03/08 11:47:43;;;;;;;12.80;7.95;;;4.60;99.90;;;;;;4876881;29;20033;-87
2023/03/08 11:54:13;;;;;;;14.73;8.30;;;4.50;99.90;;;;;;4873859;29;20037;-87
2023/03/08 12:04:24;;;;;;;;;;;;;;;;;;;;;
2023/03/08 12:07:34;;;;;;;14.10;8.00;;;4.50;99.90;;;;;;4871629;29;20038;-90
2023/03/08 12:10:46;;;;;;;14.30;7.75;;;4.50;99.90;;;;;;4825006;29;20069;-90
2023/03/08 12:20:58;;;;;;;13.57;8.60;;;4.60;99.90;;;;;;4846064;29;20046;-89
2023/03/08 12:24:11;;;;;;;13.70;9.00;;;4.60;99.90;;;;;;4894223;29;20131;-89
2023/03/08 12:30:50;;;;;;;;;;;;;;;;;;;;;
2023/03/08 12:33:51;;;;;;;16.88;10.75;;;4.60;99.90;;;;;;4892005;29;20049;-89
2023/03/08 12:37:08;;;;;;;15.50;10.20;;;4.60;99.90;;;;;;4903800;29;20068;-90
2023/03/08 12:39:59;;;;;;;16.15;9.98;;;4.40;99.90;;;;;;4927917;29;20119;-90
2023/03/08 12:46:54;;;;;;;15.35;9.25;;;4.70;99.90;;;;;;4876466;29;20097;-90
2023/03/08 12:49:55;;;;;;;14.30;9.63;;;4.80;99.90;;;;;;4878322;29;20150;-89
2023/03/08 12:52:41;;;;;;;13.73;8.85;;;4.70;99.90;;;;;;5005456;28;20026;-91
2023/03/08 13:03:13;;;;;;;11.52;7.47;;;4.40;99.90;;;;;;4935003;29;20126;-93
2023/03/08 13:06:52;;;;;;;;;;;;;;;;;;;;;
2023/03/08 13:10:00;;;;;;;11.57;6.60;;;4.30;99.90;;;;;;4849170;29;20184;-89
2023/03/08 13:13:56;;;;;;;11.75;7.32;;;4.20;99.90;;;;;;4867891;29;20052;-89
2023/03/08 13:17:11;;;;;;;;;;;;;;;;;;;;;
2023/03/08 13:19:50;;;;;;;11.07;6.45;;;4.10;99.90;;;;;;4956194;28;20039;-88
2023/03/08 13:22:43;;;;;;;;;;;4.00;99.90;;;;;;4967615;28;20431;-88
2023/03/08 13:25:51;;;;;;;9.98;6.00;;;4.00;99.90;;;;;;4956609;28;19946;-88
2023/03/08 13:29:07;;;;;;;10.27;6.57;;;4.00;99.90;;;;;;5034128;28;20389;-89
2023/03/08 13:32:12;;;;;;;;;;;;;;;;;;;;;
2023/03/08 13:35:16;;;;;;;10.27;5.82;;;4.00;99.90;;;;;;5048984;28;20408;-88
2023/03/08 13:38:26;;;;;;;10.90;6.22;;;3.90;99.90;;;;;;5035953;28;20404;-89
2023/03/08 13:41:44;;;;;;;9.02;5.57;;;4.00;99.90;;;;;;5042585;28;20388;-88
2023/03/08 13:44:48;;;;;;;8.98;5.65;;;4.00;99.90;;;;;;5027241;28;20025;-88
2023/03/08 13:47:37;;;;;;;8.68;5.22;;;4.10;99.90;;;;;;4951857;28;20446;-88
2023/03/08 13:50:37;;;;;;;7.65;4.82;;;4.20;99.90;;;;;;4937772;28;20102;-88
2023/03/08 13:53:31;;;;;;;8.57;5.57;;;4.30;99.90;;;;;;4951592;28;20093;-88
2023/03/08 13:56:06;;;;;;;9.02;5.05;;;4.30;99.90;;;;;;4970982;28;20038;-88
2023/03/08 13:58:44;;;;;;;8.27;5.32;;;4.30;99.90;;;;;;4953053;28;20121;-89
2023/03/08 14:01:44;;;;;;;9.32;5.40;;;4.30;99.90;;;;;;4969032;28;20026;-88
2023/03/08 14:04:56;;;;;;;8.68;5.28;;;4.30;99.90;;;;;;4879948;29;20060;-89
2023/03/08 14:07:36;;;;;;;9.50;5.57;;;4.30;99.90;;;;;;4881556;29;20132;-90
2023/03/08 14:10:30;;;;;;;7.38;4.63;;;4.30;99.90;;;;;;4948593;28;20074;-89
2023/03/08 14:13:16;;;;;;;9.00;5.68;;;4.30;99.90;;;;;;4948453;28;20043;-89
2023/03/08 14:15:59;;;;;;;9.35;5.65;;;4.30;99.90;;;;;;4951753;28;20031;-89
2023/03/08 14:18:46;;;;;;;9.60;6.25;;;4.30;99.90;;;;;;4967853;28;20213;-89
2023/03/08 14:25:27;;;;;;;;;;;;;;;;;;;;;
2023/03/08 14:31:01;;;;;;;8.00;5.90;;;4.30;99.90;;;;;;5046772;28;20029;-89
2023/03/08 14:34:13;;;;;;;;;;;;;;;;;;;;;
2023/03/08 14:37:02;;;;;;;7.68;5.53;;;4.40;99.90;;;;;;4981099;28;20047;-88
2023/03/08 14:40:05;;;;;;;8.27;5.60;;;4.40;99.90;;;;;;5060757;28;20484;-89
2023/03/08 14:42:46;;;;;;;9.23;6.10;;;4.40;99.90;;;;;;5068168;28;20032;-90
2023/03/08 14:46:38;;;;;;;8.18;5.57;;;4.40;99.90;;;;;;5052290;28;20029;-90
2023/03/08 14:49:30;;;;;;;;;;;4.40;99.90;;;;;;5031139;28;20028;-91
2023/03/08 14:52:43;;;;;;;8.32;5.28;;;4.40;99.90;;;;;;5065079;28;19912;-89
2023/03/08 14:55:52;;;;;;;8.07;5.78;;;4.40;99.90;;;;;;5048196;28;20044;-89
2023/03/08 14:59:01;;;;;;;7.68;5.35;;;4.40;99.90;;;;;;5053234;28;20044;-89
2023/03/08 15:01:39;;;;;;;8.48;5.55;;;4.40;99.90;;;;;;5051076;28;20049;-90
2023/03/08 15:04:30;;;;;;;8.13;5.95;;;4.30;99.90;;;;;;5065157;28;20032;-91
2023/03/08 15:07:00;;;;;;;8.10;5.43;;;4.20;99.90;;;;;;5050758;28;20695;-90
2023/03/08 15:12:59;;;;;;;9.15;6.03;;;4.20;99.90;;;;;;5025632;28;20176;-89
2023/03/08 15:15:45;;;;;;;;;;;;;;;;;;;;;
2023/03/08 15:18:19;;;;;;;9.80;5.85;;;4.10;99.90;;;;;;5030199;28;20544;-89
2023/03/08 15:20:51;;;;;;;8.90;6.28;;;4.10;99.90;;;;;;5013583;28;20544;-90
2023/03/08 15:23:49;;;;;;;9.35;6.80;;;4.10;99.90;;;;;;5031759;28;20128;-89
2023/03/08 15:27:15;;;;;;;8.98;5.85;;;4.00;99.90;;;;;;5015919;28;20048;-89
2023/03/08 15:29:50;;;;;;;8.43;5.30;;;4.00;99.90;;;;;;5026392;28;20032;-90